Euskara    
Meteorología y climatología de Navarra
Datos de la estación - Meteo Navarra

Estación de Tudela (Montes del Cierzo) GN

Altitud 314 m.


Datos desde el 08/04/2021 hasta el 09/04/2021 en horario solar
Los datos son PROVISIONALES

Anterior Página 1 de 1 Siguiente Descargar: Formato para Excel 2000 o superior   Formato csv   Formato para OpenOffice Calc
Fecha Temperatura Humedad relativa Radiación global Insolación Precipitación Vel. viento 10 m Vel. viento 10 m Dir. viento 10 m
°C % W/m² s l/m² m/s km/h °
08/04/2021 0:00 3.6 65 0.0 0 0.0 2.0 7.1 105
08/04/2021 0:10 3.7 67 0.0 0 0.0 1.8 6.3 118
08/04/2021 0:20 4.4 71 0.0 0 0.0 2.7 9.8 131
08/04/2021 0:30 4.9 72 0.0 0 0.0 3.4 12.1 142
08/04/2021 0:40 4.8 74 0.0 0 0.0 3.0 10.7 134
08/04/2021 0:50 4.5 77 0.0 0 0.0 2.3 8.1 112
08/04/2021 1:00 4.1 78 0.0 0 0.0 1.9 6.7 129
08/04/2021 1:10 3.8 79 0.0 0 0.0 2.3 8.2 137
08/04/2021 1:20 3.6 80 0.0 0 0.0 2.3 8.2 149
08/04/2021 1:30 3.8 82 0.0 0 0.0 2.9 10.5 149
08/04/2021 1:40 4.4 83 0.0 0 0.0 2.8 10.1 141
08/04/2021 1:50 4.5 83 0.0 0 0.0 2.8 10.2 135
08/04/2021 2:00 4.4 83 0.0 0 0.0 2.6 9.3 129
08/04/2021 2:10 4.1 83 0.0 0 0.0 2.9 10.5 151
08/04/2021 2:20 3.2 84 0.0 0 0.0 3.1 11.3 161
08/04/2021 2:30 3.1 85 0.0 0 0.0 3.0 10.9 155
08/04/2021 2:40 3.2 86 0.0 0 0.0 3.1 11.2 154
08/04/2021 2:50 3.4 86 0.0 0 0.0 3.1 11.0 153
08/04/2021 3:00 3.6 87 0.0 0 0.0 3.2 11.4 156
08/04/2021 3:10 3.6 87 0.0 0 0.0 3.2 11.6 159
08/04/2021 3:20 3.3 87 0.0 0 0.0 3.5 12.5 158
08/04/2021 3:30 3.9 88 0.0 0 0.0 3.0 10.7 155
08/04/2021 3:40 3.6 87 0.0 0 0.0 2.1 7.6 157
08/04/2021 3:50 3.2 88 0.0 0 0.0 1.9 6.7 144
08/04/2021 4:00 3.3 89 0.0 0 0.0 1.8 6.4 143
08/04/2021 4:10 3.5 89 0.0 0 0.0 2.0 7.1 129
08/04/2021 4:20 3.6 89 0.0 0 0.0 1.9 6.8 125
08/04/2021 4:30 3.7 89 0.0 0 0.0 1.5 5.5 112
08/04/2021 4:40 3.7 89 0.0 0 0.0 1.7 6.0 100
08/04/2021 4:50 3.9 89 0.0 0 0.0 1.7 6.0 137
08/04/2021 5:00 4.4 90 0.0 0 0.0 2.0 7.2 148
08/04/2021 5:10 4.6 89 0.0 0 0.0 1.5 5.2 124
08/04/2021 5:20 4.7 89 0.0 0 0.0 1.7 6.0 126
08/04/2021 5:30 4.9 89 0.0 0 0.0 2.0 7.2 141
08/04/2021 5:40 5.2 89 0.0 0 0.0 2.5 9.0 151
08/04/2021 5:50 5.4 88 0.0 0 0.0 3.0 10.9 150
08/04/2021 6:00 5.4 87 0.0 0 0.0 2.9 10.5 140
08/04/2021 6:10 5.4 87 9.3 0 0.0 3.1 11.2 131
08/04/2021 6:20 5.2 87 22.5 0 0.0 3.0 10.8 125
08/04/2021 6:30 5.1 87 28.4 0 0.0 2.6 9.4 130
08/04/2021 6:40 5.3 87 33.8 0 0.0 3.2 11.4 150
08/04/2021 6:50 5.5 86 44.8 0 0.0 3.4 12.3 153
08/04/2021 7:00 5.6 86 58.6 0 0.0 3.7 13.3 144
08/04/2021 7:10 5.7 85 68.1 0 0.0 4.0 14.5 135
08/04/2021 7:20 5.8 85 77.8 0 0.0 4.1 14.7 139
08/04/2021 7:30 5.9 85 93.3 0 0.0 4.7 17.0 139
08/04/2021 7:40 6.2 84 93.1 0 0.0 5.3 19.0 137
08/04/2021 7:50 6.3 84 108.2 0 0.0 5.6 20.1 136
08/04/2021 8:00 6.6 83 148.4 0 0.0 5.8 20.9 140
08/04/2021 8:10 6.9 82 202.4 0 0.0 6.3 22.8 144
08/04/2021 8:20 7.3 81 258.0 298 0.0 6.7 24.0 140
08/04/2021 8:30 7.6 80 306.0 600 0.0 6.6 23.8 138
08/04/2021 8:40 7.9 80 316.3 476 0.0 6.5 23.4 132
08/04/2021 8:50 8.4 79 553.0 600 0.0 5.9 21.2 134
08/04/2021 9:00 8.9 78 467.3 600 0.0 5.5 19.9 134
08/04/2021 9:10 9.0 77 565.4 600 0.0 6.2 22.4 126
08/04/2021 9:20 9.5 75 606.3 600 0.0 6.5 23.4 140
08/04/2021 9:30 9.9 74 586.6 600 0.0 6.3 22.6 140
08/04/2021 9:40 9.8 73 469.1 600 0.0 6.1 22.0 149
08/04/2021 9:50 9.9 72 559.4 600 0.0 6.7 24.0 149
08/04/2021 10:00 10.3 72 684.9 600 0.0 6.3 22.5 141
08/04/2021 10:10 10.9 71 752.0 600 0.0 6.5 23.3 143
08/04/2021 10:20 11.1 70 685.0 600 0.0 6.0 21.6 144
08/04/2021 10:30 11.4 69 717.2 600 0.0 6.7 24.2 142
08/04/2021 10:40 11.8 69 774.1 600 0.0 6.9 24.9 136
08/04/2021 10:50 12.3 67 849.0 600 0.0 7.1 25.6 138
08/04/2021 11:00 12.6 67 868.0 600 0.0 6.5 23.3 129
08/04/2021 11:10 12.9 66 883.0 600 0.0 6.4 22.9 136
08/04/2021 11:20 13.3 64 860.0 600 0.0 6.5 23.3 139
08/04/2021 11:30 13.6 62 773.6 600 0.0 5.2 18.8 132
08/04/2021 11:40 13.9 61 838.0 600 0.0 5.4 19.5 144
08/04/2021 11:50 14.4 60 896.0 600 0.0 5.4 19.4 143
08/04/2021 12:00 14.5 58 811.0 600 0.0 5.3 19.2 157
08/04/2021 12:10 14.5 58 634.7 600 0.0 5.3 18.9 145
08/04/2021 12:20 14.5 57 668.0 600 0.0 5.4 19.4 157
08/04/2021 12:30 14.9 56 779.7 600 0.0 5.5 19.6 159
08/04/2021 12:40 15.4 55 861.0 600 0.0 5.4 19.4 154
08/04/2021 12:50 15.5 56 853.0 600 0.0 5.5 19.7 141
08/04/2021 13:00 15.7 55 861.0 600 0.0 5.2 18.8 144
08/04/2021 13:10 16.1 54 856.0 600 0.0 4.7 17.1 136
08/04/2021 13:20 16.5 54 858.0 600 0.0 4.3 15.5 137
08/04/2021 13:30 16.6 52 845.0 600 0.0 4.6 16.6 141
08/04/2021 13:40 17.0 52 809.0 600 0.0 4.7 16.7 132
08/04/2021 13:50 17.1 51 808.0 600 0.0 4.6 16.6 127
08/04/2021 14:00 17.6 51 786.7 600 0.0 4.7 16.8 116
08/04/2021 14:10 17.5 48 766.1 600 0.0 5.0 18.1 130
08/04/2021 14:20 17.5 50 750.7 600 0.0 5.2 18.6 144
08/04/2021 14:30 17.7 49 712.0 600 0.0 5.0 18.1 153
08/04/2021 14:40 17.8 50 663.8 600 0.0 4.5 16.2 147
08/04/2021 14:50 17.8 49 451.8 392 0.0 4.6 16.5 149
08/04/2021 15:00 17.9 48 672.2 600 0.0 5.2 18.6 148
08/04/2021 15:10 17.8 47 562.1 600 0.0 4.5 16.3 153
08/04/2021 15:20 18.0 47 584.8 600 0.0 4.4 15.9 149
08/04/2021 15:30 18.2 47 481.7 600 0.0 4.9 17.5 146
08/04/2021 15:40 18.1 47 489.7 600 0.0 4.6 16.7 157
08/04/2021 15:50 18.2 46 490.6 600 0.0 4.4 15.8 157
08/04/2021 16:00 18.3 46 458.1 600 0.0 4.4 15.7 149
08/04/2021 16:10 18.3 45 422.6 600 0.0 4.3 15.4 154
08/04/2021 16:20 18.5 48 378.7 600 0.0 3.6 12.8 142
08/04/2021 16:30 18.4 47 272.6 406 0.0 4.1 14.7 156
08/04/2021 16:40 17.8 49 94.6 0 0.0 3.5 12.7 154
08/04/2021 16:50 17.7 47 130.3 0 0.0 4.1 14.8 160
08/04/2021 17:00 17.7 48 111.3 0 0.0 3.7 13.4 160
08/04/2021 17:10 17.6 48 84.2 0 0.0 3.7 13.4 158
08/04/2021 17:20 17.6 48 72.4 0 0.0 4.0 14.3 160
08/04/2021 17:30 17.4 49 64.0 0 0.0 3.4 12.4 159
08/04/2021 17:40 17.4 49 61.8 0 0.0 2.9 10.3 158
08/04/2021 17:50 17.3 51 42.5 0 0.0 1.6 5.9 97
08/04/2021 18:00 17.0 48 35.5 0 0.0 2.9 10.6 68
08/04/2021 18:10 16.8 49 27.1 0 0.0 3.0 10.9 70
08/04/2021 18:20 16.5 50 11.8 0 0.0 3.2 11.5 74
08/04/2021 18:30 16.3 51 0.0 0 0.0 3.3 11.9 82
08/04/2021 18:40 16.0 52 0.0 0 0.0 3.0 10.6 84
08/04/2021 18:50 15.8 53 0.0 0 0.0 3.2 11.5 100
08/04/2021 19:00 15.5 54 0.0 0 0.0 3.3 12.0 101
08/04/2021 19:10 15.4 53 0.0 0 0.0 3.3 11.9 109
08/04/2021 19:20 15.1 57 0.0 0 0.0 2.2 7.7 119
08/04/2021 19:30 14.6 58 0.0 0 0.0 3.1 11.2 114
08/04/2021 19:40 14.9 55 0.0 0 0.0 3.5 12.7 110
08/04/2021 19:50 14.7 56 0.0 0 0.0 3.6 13.1 111
08/04/2021 20:00 14.4 57 0.0 0 0.0 3.4 12.1 109
08/04/2021 20:10 14.3 58 0.0 0 0.0 3.2 11.6 120
08/04/2021 20:20 13.2 64 0.0 0 0.0 3.0 10.6 136
08/04/2021 20:30 12.7 65 0.0 0 0.0 3.5 12.7 143
08/04/2021 20:40 13.2 62 0.0 0 0.0 4.5 16.3 149
08/04/2021 20:50 13.5 61 0.0 0 0.0 5.2 18.9 148
08/04/2021 21:00 13.2 62 0.0 0 0.0 5.6 20.3 149
08/04/2021 21:10 13.2 63 0.0 0 0.0 6.7 24.2 148
08/04/2021 21:20 13.1 63 0.0 0 0.0 7.8 28.2 149
08/04/2021 21:30 13.0 64 0.0 0 0.0 8.2 29.4 140
08/04/2021 21:40 12.9 65 0.0 0 0.0 6.9 24.8 138
08/04/2021 21:50 12.2 71 0.0 0 0.0 5.9 21.1 144
08/04/2021 22:00 11.9 72 0.0 0 0.0 6.0 21.6 142
08/04/2021 22:10 11.8 72 0.0 0 0.0 6.0 21.4 145
08/04/2021 22:20 11.7 72 0.0 0 0.0 5.3 18.9 147
08/04/2021 22:30 11.6 71 0.0 0 0.0 5.4 19.3 143
08/04/2021 22:40 11.5 71 0.0 0 0.0 5.2 18.8 145
08/04/2021 22:50 11.4 71 0.0 0 0.0 5.4 19.3 148
08/04/2021 23:00 11.3 69 0.0 0 0.0 5.8 21.0 147
08/04/2021 23:10 11.0 70 0.0 0 0.0 5.6 20.2 150
08/04/2021 23:20 10.9 70 0.0 0 0.0 5.6 20.0 148
08/04/2021 23:30 10.5 72 0.0 0 0.0 5.1 18.4 144
08/04/2021 23:40 10.1 74 0.0 0 0.0 4.7 16.8 139
08/04/2021 23:50 9.8 75 0.0 0 0.0 4.2 15.2 133
Anterior Página 1 de 1 Siguiente

NOTA: Tipo de datos según el color:
   - Valores diarios o 10 minutos correctos
   - Valores diarios calculados a partir de un número de datos 10 minutos menor que 144 y mayor que 120, o de un número de datos semihorarios menor que 48 y mayor que 40 (caso de las estaciones de INTIA Y Ministerio)
   - Valores diez minutos estimados


Contacto        Enlaces        Aviso legal